Time;durP1;ratioP1;P1;durP2;ratioP2;P2;SDS_P1;SDS_P2;PMS_P1;PMS_P2;Temp;Humidity;BMP_temperature;BMP_pressure;BME280_temperature;BME280_humidity;BME280_pressure;Samples;Min_cycle;Max_cycle;Signal;HPM_P1;HPM_P2
2022/08/13 00:00:21;;;;;;;6.67;6.07;;;22.60;61.10;;;;;;5033343;28;20266;-71
2022/08/13 00:02:47;;;;;;;6.30;5.90;;;22.60;61.90;;;;;;5031270;28;20625;-72
2022/08/13 00:05:13;;;;;;;8.10;7.40;;;22.60;62.70;;;;;;5032922;28;20445;-71
2022/08/13 00:07:39;;;;;;;7.27;6.67;;;22.50;62.40;;;;;;5032546;28;20206;-73
2022/08/13 00:10:22;;;;;;;7.10;6.50;;;22.50;62.70;;;;;;5031245;28;20488;-71
2022/08/13 00:12:57;;;;;;;7.27;6.73;;;22.50;64.00;;;;;;5029977;28;20413;-71
2022/08/13 00:15:27;;;;;;;7.50;6.90;;;22.40;63.10;;;;;;5032695;28;20435;-71
2022/08/13 00:17:54;;;;;;;7.50;6.90;;;22.40;63.50;;;;;;5031942;28;20402;-71
2022/08/13 00:20:23;;;;;;;7.67;7.07;;;22.40;64.60;;;;;;5030063;28;20443;-71
2022/08/13 00:22:49;;;;;;;7.70;7.10;;;22.30;64.90;;;;;;5030417;28;21003;-71
2022/08/13 00:25:15;;;;;;;7.70;7.20;;;22.40;65.10;;;;;;5031685;28;20472;-71
2022/08/13 00:27:47;;;;;;;8.23;7.50;;;22.30;65.30;;;;;;5031725;28;20795;-73
2022/08/13 00:30:15;;;;;;;7.40;6.70;;;22.30;65.40;;;;;;5032748;28;20409;-71
2022/08/13 00:32:43;;;;;;;7.60;6.93;;;22.20;64.50;;;;;;5032247;28;20482;-73
2022/08/13 00:35:09;;;;;;;7.97;6.97;;;22.20;65.10;;;;;;5032195;28;20416;-71
2022/08/13 00:37:41;;;;;;;6.97;6.20;;;22.20;65.90;;;;;;5031350;28;20551;-71
2022/08/13 00:40:09;;;;;;;7.50;6.90;;;22.20;65.60;;;;;;5032164;28;20898;-72
2022/08/13 00:42:37;;;;;;;6.63;5.93;;;22.20;64.20;;;;;;5032353;28;21023;-71
2022/08/13 00:45:05;;;;;;;6.57;6.07;;;22.20;64.40;;;;;;5031152;28;20516;-71
2022/08/13 00:50:17;;;;;;;6.50;6.00;;;22.20;64.90;;;;;;5030527;28;20437;-71
2022/08/13 00:52:43;;;;;;;6.57;6.00;;;22.20;63.70;;;;;;5030618;28;20621;-73
2022/08/13 00:55:16;;;;;;;7.13;6.53;;;22.10;64.40;;;;;;5031638;28;20182;-71
2022/08/13 00:57:44;;;;;;;6.63;6.13;;;22.10;63.90;;;;;;5030881;28;20170;-72
2022/08/13 01:00:16;;;;;;;6.00;5.50;;;22.10;63.70;;;;;;5032206;28;20424;-71
2022/08/13 01:02:44;;;;;;;5.80;5.30;;;22.10;64.00;;;;;;5028213;28;20498;-72
2022/08/13 01:05:10;;;;;;;7.13;5.17;;;22.00;63.80;;;;;;5033924;28;20417;-71
2022/08/13 01:07:43;;;;;;;6.07;5.50;;;22.00;63.60;;;;;;5038945;28;20427;-71
2022/08/13 01:10:15;;;;;;;5.37;4.60;;;22.00;63.60;;;;;;5037724;28;20424;-71
2022/08/13 01:12:42;;;;;;;5.43;4.93;;;22.00;64.90;;;;;;5038008;28;20448;-73
2022/08/13 01:15:12;;;;;;;5.53;4.50;;;22.00;64.90;;;;;;5038993;28;20413;-71
2022/08/13 01:17:45;;;;;;;4.77;4.50;;;22.00;64.00;;;;;;5039297;28;20475;-71
2022/08/13 01:20:16;;;;;;;5.40;4.87;;;22.00;64.50;;;;;;5039186;28;20470;-71
2022/08/13 01:22:44;;;;;;;5.07;4.67;;;22.00;63.90;;;;;;5038284;28;20805;-72
2022/08/13 01:25:10;;;;;;;5.43;4.60;;;21.90;64.50;;;;;;5038842;28;20516;-71
2022/08/13 01:27:39;;;;;;;4.77;4.37;;;21.90;64.30;;;;;;5038617;28;20421;-71
2022/08/13 01:30:06;;;;;;;5.10;4.27;;;21.90;64.30;;;;;;5037337;28;20459;-71
2022/08/13 01:32:37;;;;;;;4.67;4.37;;;21.90;64.20;;;;;;5038710;28;20417;-71
2022/08/13 01:35:05;;;;;;;5.03;4.63;;;21.80;63.50;;;;;;5038335;28;20409;-71
2022/08/13 01:37:31;;;;;;;4.83;4.53;;;21.80;64.50;;;;;;5039145;28;20417;-71
2022/08/13 01:39:57;;;;;;;5.40;5.10;;;21.80;64.90;;;;;;5038015;28;20528;-71
2022/08/13 01:42:23;;;;;;;5.47;5.07;;;21.80;64.40;;;;;;5037615;28;20318;-71
2022/08/13 01:44:49;;;;;;;5.80;5.40;;;21.90;65.40;;;;;;5037956;28;20884;-72
2022/08/13 01:52:47;;;;;;;4.53;4.23;;;21.80;64.00;;;;;;5038299;28;20432;-72
2022/08/13 01:55:13;;;;;;;4.80;4.50;;;21.80;63.70;;;;;;5037269;28;20416;-71
2022/08/13 01:57:43;;;;;;;4.37;4.17;;;21.80;64.00;;;;;;5036789;28;20437;-71
2022/08/13 02:00:13;;;;;;;4.67;4.37;;;21.80;64.00;;;;;;5038935;28;20433;-71
2022/08/13 02:02:42;;;;;;;4.57;4.30;;;21.80;63.00;;;;;;5038666;28;20444;-72
2022/08/13 02:05:10;;;;;;;4.53;4.33;;;21.80;63.80;;;;;;5019299;28;20440;-71
2022/08/13 02:07:38;;;;;;;4.70;4.40;;;21.70;63.50;;;;;;5038589;28;20456;-71
2022/08/13 02:10:05;;;;;;;4.40;4.20;;;21.70;64.20;;;;;;5037731;28;21175;-71
2022/08/13 02:12:32;;;;;;;7.47;4.87;;;21.70;63.30;;;;;;5032344;28;20796;-71
2022/08/13 02:14:58;;;;;;;6.70;4.20;;;21.80;63.50;;;;;;5036606;28;20428;-72
2022/08/13 02:17:25;;;;;;;4.53;4.33;;;21.70;63.10;;;;;;5035692;28;20420;-71
2022/08/13 02:19:53;;;;;;;5.13;4.70;;;21.70;63.60;;;;;;5033107;28;20835;-72
2022/08/13 02:22:22;;;;;;;4.57;4.37;;;21.70;64.10;;;;;;5033097;28;20468;-71
2022/08/13 02:24:53;;;;;;;4.40;4.10;;;21.70;63.90;;;;;;5033510;28;20429;-72
2022/08/13 02:27:24;;;;;;;6.80;4.20;;;21.70;64.10;;;;;;5035305;28;20767;-71
2022/08/13 02:29:54;;;;;;;4.03;3.80;;;21.60;64.50;;;;;;5034254;28;20390;-72
2022/08/13 02:32:23;;;;;;;4.87;4.67;;;21.60;64.20;;;;;;5033161;28;20459;-71
2022/08/13 02:34:50;;;;;;;4.63;4.43;;;21.70;64.70;;;;;;5033305;28;20834;-73
2022/08/13 02:37:21;;;;;;;4.50;4.20;;;21.70;64.90;;;;;;5034836;28;20508;-71
2022/08/13 02:39:48;;;;;;;4.83;4.53;;;21.70;64.20;;;;;;5033617;28;20440;-73
2022/08/13 02:42:15;;;;;;;5.07;4.67;;;21.70;63.80;;;;;;5030960;28;20522;-71
2022/08/13 02:44:49;;;;;;;4.53;4.13;;;21.70;64.80;;;;;;5034549;28;20417;-71
2022/08/13 02:47:16;;;;;;;5.43;5.03;;;21.70;64.50;;;;;;5034341;28;20409;-71
2022/08/13 02:49:42;;;;;;;4.77;4.37;;;21.60;63.90;;;;;;5034541;28;20413;-71
2022/08/13 02:52:09;;;;;;;4.70;4.30;;;21.60;64.50;;;;;;5032472;28;21137;-71
2022/08/13 02:54:43;;;;;;;6.70;6.20;;;21.60;64.10;;;;;;5034653;28;20216;-71
2022/08/13 02:57:10;;;;;;;5.20;4.73;;;21.50;64.10;;;;;;5032534;28;21034;-71
2022/08/13 02:59:36;;;;;;;5.30;4.87;;;21.50;65.20;;;;;;5033297;28;20425;-72
2022/08/13 03:02:04;;;;;;;5.03;4.70;;;21.50;65.50;;;;;;5032139;28;20465;-72
2022/08/13 03:04:30;;;;;;;5.50;5.10;;;21.50;65.50;;;;;;5034200;28;20476;-71
2022/08/13 03:06:57;;;;;;;5.87;5.40;;;21.50;65.90;;;;;;5033430;28;20769;-70
2022/08/13 03:09:24;;;;;;;5.10;4.70;;;21.40;65.70;;;;;;5034481;28;20417;-70
2022/08/13 03:11:50;;;;;;;4.93;4.63;;;21.40;64.90;;;;;;5032486;28;20465;-72
2022/08/13 03:14:17;;;;;;;5.47;5.17;;;21.40;64.70;;;;;;5032515;28;20421;-71
2022/08/13 03:16:44;;;;;;;4.97;4.63;;;21.40;65.00;;;;;;5033715;28;20421;-71
2022/08/13 03:19:10;;;;;;;4.67;4.33;;;21.40;66.20;;;;;;5030814;28;20445;-71
2022/08/13 03:21:39;;;;;;;4.93;4.73;;;21.30;65.30;;;;;;5032747;28;20972;-71
2022/08/13 03:24:06;;;;;;;5.33;4.60;;;21.30;66.00;;;;;;5032153;28;20190;-71
2022/08/13 03:26:33;;;;;;;5.23;4.83;;;21.30;66.60;;;;;;5031737;28;20428;-71
2022/08/13 03:29:01;;;;;;;5.50;4.70;;;21.30;66.60;;;;;;5031990;28;20429;-71
2022/08/13 03:31:28;;;;;;;4.90;4.70;;;21.20;65.90;;;;;;5032593;28;20849;-71
2022/08/13 03:34:01;;;;;;;5.73;5.10;;;21.10;66.60;;;;;;5031016;28;20429;-72
2022/08/13 03:36:28;;;;;;;5.40;5.10;;;21.10;66.90;;;;;;5033790;28;20452;-71
2022/08/13 03:38:53;;;;;;;5.67;5.17;;;21.00;66.50;;;;;;5032919;28;20888;-73
2022/08/13 03:41:19;;;;;;;5.40;5.00;;;21.00;67.60;;;;;;5032301;28;20464;-71
2022/08/13 03:43:47;;;;;;;5.27;4.87;;;21.00;67.60;;;;;;5032544;28;20186;-71
2022/08/13 03:46:19;;;;;;;5.10;4.70;;;21.10;67.70;;;;;;5032907;28;20178;-71
2022/08/13 03:48:47;;;;;;;5.23;4.87;;;21.10;67.10;;;;;;5031855;28;20420;-71
2022/08/13 03:51:13;;;;;;;4.67;4.40;;;21.10;67.40;;;;;;5031219;28;21031;-71
2022/08/13 03:53:40;;;;;;;4.93;4.70;;;21.10;67.40;;;;;;5032910;28;20445;-72
2022/08/13 03:56:06;;;;;;;5.20;4.90;;;21.10;67.50;;;;;;5032611;28;20413;-72
2022/08/13 03:58:33;;;;;;;5.43;4.93;;;21.10;67.80;;;;;;5033313;28;20818;-71
2022/08/13 04:01:02;;;;;;;5.77;5.47;;;21.10;67.60;;;;;;5031266;28;20429;-71
2022/08/13 04:03:30;;;;;;;5.53;4.97;;;21.10;68.00;;;;;;5030962;28;20587;-71
2022/08/13 04:05:58;;;;;;;6.23;5.80;;;21.10;68.20;;;;;;5032587;28;20417;-72
2022/08/13 04:08:30;;;;;;;6.33;5.73;;;21.00;67.40;;;;;;5033250;28;20499;-72
2022/08/13 04:10:57;;;;;;;6.00;5.60;;;21.00;68.00;;;;;;5031211;28;20425;-72
2022/08/13 04:13:24;;;;;;;7.40;6.80;;;20.90;69.00;;;;;;5032994;28;20406;-71
2022/08/13 04:15:50;;;;;;;5.93;5.53;;;21.00;69.10;;;;;;5015384;28;20417;-72
2022/08/13 04:18:16;;;;;;;6.87;6.37;;;21.00;68.80;;;;;;5031056;28;20885;-71
2022/08/13 04:20:52;;;;;;;5.63;5.20;;;20.90;68.50;;;;;;5030766;28;20436;-71
2022/08/13 04:23:19;;;;;;;5.37;5.07;;;20.80;69.80;;;;;;5031237;28;20214;-72
2022/08/13 04:25:46;;;;;;;5.50;5.20;;;20.80;69.30;;;;;;5032988;28;20463;-71
2022/08/13 04:28:13;;;;;;;5.47;5.17;;;20.80;69.20;;;;;;5032021;28;20409;-71
2022/08/13 04:30:41;;;;;;;5.10;4.73;;;20.90;69.50;;;;;;5029601;28;20492;-72
2022/08/13 04:33:15;;;;;;;5.60;5.20;;;20.90;69.90;;;;;;5027964;28;20947;-71
2022/08/13 04:35:41;;;;;;;8.23;7.53;;;20.90;69.50;;;;;;5027892;28;20898;-71
2022/08/13 04:38:08;;;;;;;10.03;6.40;;;20.90;69.10;;;;;;5030798;28;20429;-68
2022/08/13 04:40:37;;;;;;;6.90;6.50;;;20.80;68.70;;;;;;5029970;28;20463;-69
2022/08/13 04:43:05;;;;;;;6.57;6.07;;;20.90;68.80;;;;;;5031622;28;20449;-70
2022/08/13 04:45:32;;;;;;;5.83;5.43;;;20.80;69.00;;;;;;5030404;28;20464;-70
2022/08/13 04:48:03;;;;;;;5.80;5.30;;;20.70;69.40;;;;;;5030589;28;20901;-71
2022/08/13 04:50:32;;;;;;;5.27;4.97;;;20.70;69.90;;;;;;5030768;28;20409;-68
2022/08/13 04:52:59;;;;;;;6.50;5.90;;;20.70;70.20;;;;;;5031763;28;20505;-68
2022/08/13 04:55:26;;;;;;;5.90;5.50;;;20.70;70.20;;;;;;5032197;28;20904;-68
2022/08/13 04:57:53;;;;;;;6.10;5.70;;;20.60;70.60;;;;;;5032372;28;20413;-68
2022/08/13 05:00:20;;;;;;;5.67;5.27;;;20.60;70.50;;;;;;5029429;28;20421;-71
2022/08/13 05:02:46;;;;;;;7.07;6.57;;;20.60;70.50;;;;;;5030144;28;20872;-70
2022/08/13 05:05:13;;;;;;;11.30;10.30;;;20.60;71.00;;;;;;5031285;28;20475;-72
2022/08/13 05:07:39;;;;;;;7.50;6.80;;;20.70;70.90;;;;;;5032170;28;20418;-71
2022/08/13 05:10:06;;;;;;;7.60;6.80;;;20.70;71.20;;;;;;5030600;28;20422;-72
2022/08/13 05:12:35;;;;;;;5.57;5.17;;;20.70;72.00;;;;;;5028877;28;20521;-72
2022/08/13 05:15:02;;;;;;;5.53;5.13;;;20.70;71.80;;;;;;5031646;28;20416;-71
2022/08/13 05:17:30;;;;;;;7.60;6.63;;;20.70;72.40;;;;;;5031117;28;20421;-72
2022/08/13 05:19:56;;;;;;;7.00;6.30;;;20.70;72.20;;;;;;5031929;28;20917;-71
2022/08/13 05:22:23;;;;;;;6.93;6.33;;;20.80;72.30;;;;;;5029591;28;20504;-71
2022/08/13 05:24:50;;;;;;;5.67;5.37;;;20.80;72.60;;;;;;5031958;28;20492;-72
2022/08/13 05:27:17;;;;;;;7.00;6.50;;;20.80;72.00;;;;;;5031878;28;20732;-71
2022/08/13 05:29:43;;;;;;;7.23;6.73;;;20.90;72.00;;;;;;5031388;28;20456;-71
2022/08/13 05:32:10;;;;;;;6.70;6.10;;;20.90;72.10;;;;;;5027030;28;20422;-71
2022/08/13 05:34:37;;;;;;;9.37;7.50;;;20.90;72.10;;;;;;5028619;28;20873;-70
2022/08/13 05:37:04;;;;;;;17.03;7.40;;;20.80;73.90;;;;;;5021188;28;20444;-71
2022/08/13 05:39:30;;;;;;;10.53;7.90;;;21.10;77.50;;;;;;5025908;28;20428;-71
2022/08/13 05:41:56;;;;;;;6.57;6.13;;;21.30;76.20;;;;;;5027185;28;20492;-71
2022/08/13 05:44:22;;;;;;;6.97;6.40;;;21.60;76.90;;;;;;5025840;28;20468;-71
2022/08/13 05:46:50;;;;;;;7.03;6.53;;;21.90;74.40;;;;;;5029220;28;20271;-71
2022/08/13 05:49:17;;;;;;;6.13;5.63;;;22.20;74.00;;;;;;5015743;28;20913;-71
2022/08/13 05:51:44;;;;;;;6.00;5.60;;;22.30;73.60;;;;;;5023925;28;20556;-71
2022/08/13 05:54:10;;;;;;;6.20;5.80;;;22.50;72.20;;;;;;5034527;28;20429;-71
2022/08/13 05:56:37;;;;;;;7.40;6.70;;;22.70;72.50;;;;;;5031061;28;20782;-71
2022/08/13 06:03:22;;;;;;;6.43;5.83;;;22.80;72.20;;;;;;5031018;28;20431;-71
2022/08/13 06:04:41;;;;;;;6.17;5.73;;;23.10;70.20;;;;;;5031327;28;20952;-71
2022/08/13 06:07:17;;;;;;;6.40;6.00;;;23.10;68.30;;;;;;5036622;28;20582;-71
2022/08/13 06:09:43;;;;;;;6.07;5.73;;;23.10;70.00;;;;;;5036711;28;20429;-71
2022/08/13 06:12:09;;;;;;;7.30;6.90;;;23.20;69.40;;;;;;5028581;28;20436;-71
2022/08/13 06:14:35;;;;;;;6.53;6.03;;;23.30;68.70;;;;;;5041751;28;20217;-71
2022/08/13 06:17:02;;;;;;;5.90;5.50;;;23.30;68.90;;;;;;5038677;28;20634;-72
2022/08/13 06:19:31;;;;;;;6.20;5.70;;;23.40;68.30;;;;;;5033391;28;20428;-71
2022/08/13 06:22:01;;;;;;;6.13;5.83;;;23.40;68.40;;;;;;5029921;28;20470;-71
2022/08/13 06:24:35;;;;;;;6.07;5.60;;;23.50;68.70;;;;;;5032913;28;20494;-71
2022/08/13 06:27:05;;;;;;;5.70;5.30;;;23.60;68.90;;;;;;5031226;28;20520;-72
2022/08/13 06:29:35;;;;;;;5.03;4.73;;;23.60;68.30;;;;;;5031778;28;20437;-71
2022/08/13 06:32:04;;;;;;;5.87;5.50;;;23.60;68.30;;;;;;5031626;28;20548;-72
2022/08/13 06:34:35;;;;;;;5.97;5.67;;;23.60;68.10;;;;;;5031661;28;20547;-71
2022/08/13 06:37:05;;;;;;;6.23;5.73;;;23.70;68.00;;;;;;5031007;28;20433;-72
2022/08/13 06:39:32;;;;;;;7.07;6.53;;;23.80;67.70;;;;;;5032548;28;20536;-71
2022/08/13 06:42:03;;;;;;;5.90;5.50;;;23.70;66.30;;;;;;5031224;28;20996;-71
2022/08/13 06:44:32;;;;;;;5.73;5.03;;;23.70;67.30;;;;;;5031909;28;20480;-71
2022/08/13 06:47:03;;;;;;;6.00;5.63;;;23.70;67.80;;;;;;5033422;28;20440;-71
2022/08/13 06:49:34;;;;;;;5.30;4.90;;;23.80;67.40;;;;;;5032779;28;20455;-71
2022/08/13 06:52:00;;;;;;;5.27;4.97;;;23.80;67.00;;;;;;5034958;28;20473;-71
2022/08/13 06:54:28;;;;;;;6.80;6.30;;;23.80;67.70;;;;;;5034729;28;20796;-71
2022/08/13 06:56:58;;;;;;;6.90;5.20;;;23.90;67.80;;;;;;5028264;28;20437;-71
2022/08/13 06:59:24;;;;;;;5.33;4.90;;;23.90;67.60;;;;;;5031526;28;20474;-71
2022/08/13 07:01:57;;;;;;;5.60;5.20;;;23.90;68.00;;;;;;5030538;28;20511;-71
2022/08/13 07:04:24;;;;;;;7.30;5.30;;;24.00;68.20;;;;;;5023574;28;20413;-71
2022/08/13 07:06:51;;;;;;;5.40;4.90;;;24.00;67.90;;;;;;5020649;28;20620;-71
2022/08/13 07:09:18;;;;;;;9.47;5.30;;;24.10;67.90;;;;;;5033109;28;20409;-71
2022/08/13 07:11:45;;;;;;;5.57;5.27;;;24.10;67.40;;;;;;5037054;28;20435;-71
2022/08/13 07:14:16;;;;;;;5.40;5.07;;;24.20;68.10;;;;;;5024544;28;20434;-71
2022/08/13 07:16:44;;;;;;;5.67;5.27;;;24.20;68.20;;;;;;5026889;28;20448;-71
2022/08/13 07:19:13;;;;;;;5.50;5.20;;;24.30;68.20;;;;;;5037858;28;20448;-71
2022/08/13 07:21:40;;;;;;;5.37;5.07;;;24.30;67.90;;;;;;5041029;28;20567;-71
2022/08/13 07:24:08;;;;;;;5.50;5.10;;;24.40;68.00;;;;;;5033401;28;20516;-71
2022/08/13 07:26:34;;;;;;;5.00;4.67;;;24.50;68.20;;;;;;5034384;28;20464;-71
2022/08/13 07:29:05;;;;;;;5.37;4.97;;;24.50;67.50;;;;;;5033329;28;20505;-71
2022/08/13 07:31:34;;;;;;;5.50;5.20;;;24.60;66.90;;;;;;5032343;28;20428;-71
2022/08/13 07:34:04;;;;;;;5.20;4.90;;;24.70;67.40;;;;;;5034354;28;20757;-71
2022/08/13 07:36:33;;;;;;;5.60;5.20;;;24.80;67.50;;;;;;5034137;28;20398;-71
2022/08/13 07:39:09;;;;;;;5.70;5.30;;;24.80;67.10;;;;;;5034060;28;20417;-71
2022/08/13 07:41:46;;;;;;;5.57;5.10;;;24.90;66.70;;;;;;5032692;28;20465;-71
2022/08/13 07:44:20;;;;;;;5.80;5.40;;;24.90;66.90;;;;;;5033336;28;20405;-71
2022/08/13 07:46:48;;;;;;;5.33;4.93;;;25.00;66.80;;;;;;5033946;28;20397;-71
2022/08/13 07:49:15;;;;;;;6.30;5.70;;;25.10;66.90;;;;;;5033158;28;20406;-71
2022/08/13 07:51:42;;;;;;;7.13;6.20;;;25.20;67.00;;;;;;5019451;28;20478;-71
2022/08/13 07:54:10;;;;;;;5.90;5.60;;;25.20;66.40;;;;;;5013242;28;20410;-71
2022/08/13 07:56:37;;;;;;;5.97;5.67;;;25.30;66.20;;;;;;5026519;28;20433;-71
2022/08/13 07:59:17;;;;;;;5.43;5.10;;;25.40;65.90;;;;;;5033692;28;20405;-71
2022/08/13 08:01:46;;;;;;;5.97;5.53;;;25.50;66.40;;;;;;5031635;28;20465;-71
2022/08/13 08:04:14;;;;;;;6.40;6.00;;;25.50;66.40;;;;;;5032804;28;20806;-71
2022/08/13 08:06:42;;;;;;;5.80;5.40;;;25.60;64.60;;;;;;5030344;28;20463;-71
2022/08/13 08:09:08;;;;;;;6.23;5.80;;;25.70;62.40;;;;;;5031104;28;20413;-71
2022/08/13 08:14:19;;;;;;;5.60;5.10;;;25.80;64.20;;;;;;5029989;28;20745;-73
2022/08/13 08:16:47;;;;;;;5.00;4.60;;;25.90;62.90;;;;;;5032012;28;20432;-73
2022/08/13 08:19:14;;;;;;;5.03;4.67;;;26.00;64.00;;;;;;5031278;28;20193;-73
2022/08/13 08:21:43;;;;;;;5.60;5.30;;;26.10;62.70;;;;;;5029856;28;20484;-73
2022/08/13 08:24:09;;;;;;;6.00;5.30;;;26.20;61.00;;;;;;5030643;28;20429;-73
2022/08/13 08:26:35;;;;;;;5.30;5.00;;;26.40;61.00;;;;;;5030864;28;20950;-72
2022/08/13 08:29:05;;;;;;;5.77;5.47;;;26.50;61.60;;;;;;5029701;28;20178;-72
2022/08/13 08:31:33;;;;;;;5.57;5.20;;;26.70;59.00;;;;;;5027841;28;20912;-73
2022/08/13 08:34:01;;;;;;;5.37;4.97;;;26.70;61.90;;;;;;5027732;28;20431;-73
2022/08/13 08:36:28;;;;;;;4.80;4.60;;;26.90;61.60;;;;;;5028960;28;20421;-73
2022/08/13 08:44:32;;;;;;;5.00;4.70;;;27.30;59.80;;;;;;5031417;28;20511;-73
2022/08/13 08:47:00;;;;;;;5.00;4.70;;;27.50;58.90;;;;;;5031684;28;20457;-73
2022/08/13 08:49:28;;;;;;;4.80;4.60;;;27.70;58.00;;;;;;5029111;28;20429;-73
2022/08/13 08:51:54;;;;;;;5.17;4.83;;;27.80;57.60;;;;;;5027320;28;20469;-74
2022/08/13 08:54:22;;;;;;;4.67;4.47;;;27.90;56.40;;;;;;5022247;28;20943;-73
2022/08/13 08:56:54;;;;;;;5.60;5.20;;;28.00;56.90;;;;;;5029735;28;20511;-73
2022/08/13 08:59:32;;;;;;;6.00;5.40;;;28.10;57.70;;;;;;5030812;28;20840;-73
2022/08/13 09:01:59;;;;;;;5.40;4.90;;;28.40;57.90;;;;;;5026115;28;20464;-74
2022/08/13 09:04:28;;;;;;;5.70;5.17;;;28.50;57.10;;;;;;5030918;28;20433;-73
2022/08/13 09:06:58;;;;;;;6.27;5.97;;;28.70;56.60;;;;;;5032606;28;20397;-73
2022/08/13 09:09:25;;;;;;;5.50;5.20;;;28.90;56.90;;;;;;5032058;28;20419;-73
2022/08/13 09:11:55;;;;;;;5.30;5.03;;;29.00;55.70;;;;;;5031490;28;20805;-72
2022/08/13 09:14:26;;;;;;;5.33;5.10;;;29.20;54.30;;;;;;5030844;28;20421;-72
2022/08/13 09:16:54;;;;;;;5.67;5.37;;;29.10;54.50;;;;;;5031420;28;20401;-71
2022/08/13 09:19:21;;;;;;;5.50;5.20;;;29.00;54.20;;;;;;5031887;28;20406;-72
2022/08/13 09:21:47;;;;;;;5.83;5.43;;;28.90;54.30;;;;;;5031114;28;20476;-71
2022/08/13 09:24:15;;;;;;;5.53;5.23;;;28.80;55.40;;;;;;5033748;28;20431;-71
2022/08/13 09:26:47;;;;;;;5.27;5.07;;;28.40;55.50;;;;;;5033867;28;20421;-71
2022/08/13 09:29:18;;;;;;;5.33;5.13;;;27.70;55.70;;;;;;5035885;28;20401;-71
2022/08/13 09:31:47;;;;;;;4.60;4.40;;;27.40;55.90;;;;;;5032522;28;20436;-71
2022/08/13 09:34:14;;;;;;;5.10;4.70;;;27.50;55.30;;;;;;5034432;28;20429;-71
2022/08/13 09:36:41;;;;;;;5.00;4.70;;;27.80;54.80;;;;;;5035937;28;20504;-71
2022/08/13 09:39:08;;;;;;;4.00;3.90;;;28.00;54.10;;;;;;5033137;28;20440;-71
2022/08/13 09:41:48;;;;;;;5.67;5.27;;;28.10;50.50;;;;;;5029155;28;20806;-71
2022/08/13 09:44:16;;;;;;;4.70;4.50;;;28.30;53.40;;;;;;5032576;28;20436;-72
2022/08/13 09:46:42;;;;;;;4.53;4.33;;;28.20;53.60;;;;;;5036183;28;20420;-71
2022/08/13 09:49:11;;;;;;;4.90;4.60;;;28.40;50.90;;;;;;5034484;28;20433;-71
2022/08/13 09:51:37;;;;;;;5.33;4.93;;;28.70;49.70;;;;;;5035090;28;20483;-71
2022/08/13 09:54:05;;;;;;;4.73;4.53;;;28.90;51.60;;;;;;5034999;28;20432;-71
2022/08/13 09:56:32;;;;;;;4.27;4.07;;;28.90;51.20;;;;;;5035303;28;20428;-71
2022/08/13 09:58:59;;;;;;;3.93;3.80;;;29.00;51.30;;;;;;5036012;28;20499;-71
2022/08/13 10:01:24;;;;;;;4.47;4.17;;;29.10;48.50;;;;;;5035346;28;20428;-71
2022/08/13 10:03:51;;;;;;;4.20;4.00;;;29.30;47.20;;;;;;5031358;28;20432;-71
2022/08/13 10:06:18;;;;;;;4.43;4.23;;;29.60;48.20;;;;;;5019737;28;20241;-71
2022/08/13 10:08:46;;;;;;;5.77;4.90;;;29.80;46.00;;;;;;5031986;28;20444;-72
2022/08/13 10:11:13;;;;;;;4.50;4.40;;;29.80;49.30;;;;;;5034397;28;20912;-72
2022/08/13 10:13:39;;;;;;;3.97;3.77;;;29.70;45.70;;;;;;5035526;28;20409;-71
2022/08/13 10:16:05;;;;;;;4.80;4.50;;;30.00;44.10;;;;;;5033694;28;20455;-71
2022/08/13 10:18:31;;;;;;;5.00;4.63;;;30.00;47.50;;;;;;5033673;28;20668;-71
2022/08/13 10:20:57;;;;;;;6.67;6.17;;;29.70;49.70;;;;;;5032265;28;20206;-71
2022/08/13 10:23:23;;;;;;;6.87;6.50;;;29.10;52.40;;;;;;5032850;28;20457;-71
2022/08/13 10:25:52;;;;;;;5.10;4.70;;;29.10;47.50;;;;;;5033218;28;20491;-72
2022/08/13 10:28:28;;;;;;;5.10;4.70;;;29.40;47.80;;;;;;5032961;28;20209;-71
2022/08/13 10:30:55;;;;;;;5.00;4.80;;;30.00;44.50;;;;;;5033448;28;20431;-70
2022/08/13 10:33:21;;;;;;;4.50;4.33;;;30.30;44.40;;;;;;5034736;28;20418;-72
2022/08/13 10:35:52;;;;;;;4.50;4.30;;;30.70;43.80;;;;;;5032902;28;20925;-74
2022/08/13 10:38:19;;;;;;;4.13;4.03;;;30.90;42.90;;;;;;5021656;28;20437;-72
2022/08/13 10:40:45;;;;;;;5.13;4.93;;;31.20;42.40;;;;;;5030103;28;20436;-71
2022/08/13 10:43:11;;;;;;;4.77;4.57;;;31.30;42.90;;;;;;5027447;28;20512;-71
2022/08/13 10:45:42;;;;;;;4.47;4.27;;;31.20;43.90;;;;;;5029275;28;20873;-72
2022/08/13 10:48:11;;;;;;;4.80;4.60;;;31.50;41.00;;;;;;5033521;28;20643;-71
2022/08/13 10:50:37;;;;;;;4.33;4.13;;;31.60;40.20;;;;;;5032435;28;20473;-71
2022/08/13 10:53:03;;;;;;;4.17;3.97;;;31.70;39.50;;;;;;5029301;28;20437;-71
2022/08/13 10:55:29;;;;;;;4.50;4.23;;;31.70;38.60;;;;;;5027065;28;20491;-72
2022/08/13 10:57:56;;;;;;;29.10;26.00;;;31.80;39.80;;;;;;5029713;28;20257;-71
2022/08/13 11:00:22;;;;;;;23.93;21.63;;;31.80;38.60;;;;;;5034431;28;20186;-71
2022/08/13 11:02:50;;;;;;;5.70;5.23;;;31.80;39.60;;;;;;5028142;28;20469;-72
2022/08/13 11:05:18;;;;;;;4.50;4.30;;;31.40;40.30;;;;;;4989537;28;20623;-72
2022/08/13 11:07:48;;;;;;;4.57;4.37;;;31.50;41.60;;;;;;5032284;28;20425;-72
2022/08/13 11:10:14;;;;;;;4.33;4.13;;;31.70;40.70;;;;;;5030596;28;20413;-71
2022/08/13 11:12:48;;;;;;;4.70;4.50;;;31.80;39.70;;;;;;5031289;28;20947;-71
2022/08/13 11:15:14;;;;;;;5.20;4.80;;;31.90;39.50;;;;;;5028544;28;20547;-71
2022/08/13 11:17:46;;;;;;;6.20;5.80;;;32.00;39.20;;;;;;5032898;28;20409;-71
2022/08/13 11:20:17;;;;;;;5.53;5.03;;;31.50;41.70;;;;;;5031479;28;20437;-71
2022/08/13 11:22:43;;;;;;;5.30;5.00;;;31.40;42.20;;;;;;5032872;28;20464;-71
2022/08/13 11:25:09;;;;;;;7.97;7.30;;;31.40;42.70;;;;;;5034910;28;20437;-71
2022/08/13 11:27:35;;;;;;;7.43;6.93;;;30.90;43.80;;;;;;5034758;28;20847;-71
2022/08/13 11:30:01;;;;;;;6.53;6.13;;;30.20;45.00;;;;;;5034038;28;20436;-71
2022/08/13 11:32:27;;;;;;;6.00;5.60;;;30.10;45.00;;;;;;5029953;28;20487;-72
2022/08/13 11:34:53;;;;;;;5.70;5.40;;;29.90;45.40;;;;;;5028360;28;20429;-71
2022/08/13 11:37:19;;;;;;;6.13;5.73;;;29.10;46.50;;;;;;5033035;28;20695;-72
2022/08/13 11:39:45;;;;;;;5.60;5.30;;;28.90;46.70;;;;;;5033904;28;20425;-71
2022/08/13 11:42:10;;;;;;;4.37;4.17;;;28.50;47.70;;;;;;5032112;28;20216;-71
2022/08/13 11:44:36;;;;;;;5.10;4.80;;;28.90;45.30;;;;;;5033038;28;20181;-71
2022/08/13 11:47:02;;;;;;;5.30;4.93;;;29.30;46.30;;;;;;5033399;28;20166;-71
2022/08/13 11:49:27;;;;;;;64.10;57.33;;;29.70;45.70;;;;;;5031975;28;20525;-71
2022/08/13 11:51:53;;;;;;;24.70;22.53;;;30.00;45.70;;;;;;5035219;28;20586;-71
2022/08/13 11:54:21;;;;;;;9.17;8.47;;;30.10;44.70;;;;;;5031969;28;20209;-71
2022/08/13 11:56:46;;;;;;;6.50;4.73;;;29.60;46.00;;;;;;5031959;28;20225;-71
2022/08/13 11:59:12;;;;;;;5.20;4.80;;;29.40;45.40;;;;;;5028515;28;20929;-71
2022/08/13 12:01:38;;;;;;;5.77;5.40;;;29.80;43.50;;;;;;5037383;28;20202;-71
2022/08/13 12:04:04;;;;;;;5.53;5.23;;;29.00;46.60;;;;;;5014130;28;20193;-71
2022/08/13 12:06:29;;;;;;;5.50;5.20;;;29.00;46.80;;;;;;5032590;28;20444;-71
2022/08/13 12:08:55;;;;;;;5.20;4.93;;;29.30;46.70;;;;;;5031088;28;20190;-71
2022/08/13 12:11:21;;;;;;;6.10;5.70;;;29.20;46.50;;;;;;5032397;28;20175;-71
2022/08/13 12:13:47;;;;;;;6.27;5.77;;;28.60;47.10;;;;;;5032804;28;20174;-71
2022/08/13 12:16:13;;;;;;;5.20;5.00;;;28.60;47.90;;;;;;5032872;28;20419;-72
2022/08/13 12:18:38;;;;;;;4.50;4.30;;;29.00;46.30;;;;;;5030996;28;20183;-69
2022/08/13 12:21:04;;;;;;;5.37;4.97;;;29.60;43.50;;;;;;5030607;28;20257;-69
2022/08/13 12:23:30;;;;;;;5.20;4.95;;;30.00;45.90;;;;;;5030209;28;20449;-69
2022/08/13 12:25:56;;;;;;;5.03;4.73;;;30.50;44.90;;;;;;5034395;28;20182;-69
2022/08/13 12:28:27;;;;;;;4.90;4.70;;;31.00;43.10;;;;;;5033675;28;20483;-69
2022/08/13 12:31:04;;;;;;;5.10;4.90;;;31.30;43.30;;;;;;5029106;28;20284;-69
2022/08/13 12:33:31;;;;;;;5.60;5.20;;;31.70;43.40;;;;;;5032032;28;20427;-69
2022/08/13 12:36:00;;;;;;;5.00;4.80;;;31.90;43.20;;;;;;5030136;28;20429;-69
2022/08/13 12:38:27;;;;;;;5.13;4.93;;;32.10;43.00;;;;;;5028254;28;20429;-70
2022/08/13 12:40:53;;;;;;;5.80;5.40;;;32.30;41.60;;;;;;5028771;28;20440;-69
2022/08/13 12:43:19;;;;;;;120.20;107.93;;;32.40;41.80;;;;;;5032494;28;20453;-69
2022/08/13 12:45:45;;;;;;;385.23;347.83;;;32.50;41.80;;;;;;5031692;28;20433;-70
2022/08/13 12:48:15;;;;;;;30.83;28.00;;;32.60;42.00;;;;;;5031128;28;20429;-70
2022/08/13 12:50:43;;;;;;;5.87;5.50;;;32.70;41.80;;;;;;5026246;28;20461;-70
2022/08/13 12:53:10;;;;;;;5.00;4.70;;;32.70;41.10;;;;;;5030975;28;20773;-69
2022/08/13 12:55:37;;;;;;;5.40;4.90;;;32.80;40.30;;;;;;5030531;28;20431;-68
2022/08/13 12:58:12;;;;;;;5.30;5.00;;;32.80;41.40;;;;;;5032198;28;20409;-69
2022/08/13 13:00:37;;;;;;;5.57;5.07;;;32.80;40.50;;;;;;5027185;28;20424;-68
2022/08/13 13:03:03;;;;;;;7.90;7.40;;;32.80;40.60;;;;;;5029118;28;20989;-68
2022/08/13 13:05:30;;;;;;;105.63;95.07;;;32.90;40.00;;;;;;5031528;28;20236;-71
2022/08/13 13:07:55;;;;;;;17.07;15.53;;;32.80;41.60;;;;;;5029660;28;20178;-68